createdAt,value
2022-12-15T00:02:20.404Z,10.89
2022-12-15T00:04:46.719Z,11.07
2022-12-15T00:07:12.985Z,11.34
2022-12-15T00:09:39.245Z,11.37
2022-12-15T00:12:05.475Z,11.62
2022-12-15T00:14:31.708Z,12.03
2022-12-15T00:16:57.948Z,12.22
2022-12-15T00:19:24.198Z,12.24
2022-12-15T00:21:50.471Z,12.01
2022-12-15T00:24:16.725Z,11.57
2022-12-15T00:26:42.969Z,11.56
2022-12-15T00:29:09.235Z,12.00
2022-12-15T00:31:35.541Z,12.02
2022-12-15T00:34:01.802Z,11.91
2022-12-15T00:36:28.047Z,12.31
2022-12-15T00:38:56.145Z,11.82
2022-12-15T00:41:25.458Z,11.59
2022-12-15T00:43:51.734Z,10.98
2022-12-15T00:46:18.165Z,10.71
2022-12-15T00:48:44.489Z,9.49
2022-12-15T00:51:10.742Z,9.67
2022-12-15T00:53:36.983Z,10.33
2022-12-15T00:56:03.239Z,10.61
2022-12-15T00:58:29.529Z,11.11
2022-12-15T01:00:55.769Z,12.31
2022-12-15T01:03:22.128Z,13.07
2022-12-15T01:05:48.449Z,13.49
2022-12-15T01:08:14.703Z,13.11
2022-12-15T01:10:40.953Z,12.94
2022-12-15T01:13:07.241Z,13.04
2022-12-15T01:15:33.497Z,13.16
2022-12-15T01:17:59.748Z,12.45
2022-12-15T01:20:26.037Z,11.95
2022-12-15T01:22:52.281Z,10.90
2022-12-15T01:25:18.538Z,11.21
2022-12-15T01:27:44.781Z,11.71
2022-12-15T01:30:11.027Z,11.61
2022-12-15T01:32:41.417Z,13.03
2022-12-15T01:35:10.750Z,13.44
2022-12-15T01:37:37.033Z,13.19
2022-12-15T01:40:03.329Z,12.89
2022-12-15T01:42:29.693Z,13.33
2022-12-15T01:44:55.940Z,13.14
2022-12-15T01:47:22.193Z,13.11
2022-12-15T01:49:49.185Z,12.60
2022-12-15T01:52:15.602Z,12.70
2022-12-15T01:54:41.833Z,11.41
2022-12-15T01:57:08.070Z,11.28
2022-12-15T01:59:34.313Z,10.91
2022-12-15T02:02:00.689Z,10.37
2022-12-15T02:04:27.043Z,11.00
2022-12-15T02:06:53.295Z,10.76
2022-12-15T02:09:19.534Z,11.12
2022-12-15T02:11:45.790Z,10.71
2022-12-15T02:14:12.037Z,10.76
2022-12-15T02:16:38.350Z,11.52
2022-12-15T02:19:04.636Z,11.63
2022-12-15T02:21:30.894Z,12.44
2022-12-15T02:23:57.140Z,12.25
2022-12-15T02:26:23.641Z,13.26
2022-12-15T02:28:49.961Z,14.13
2022-12-15T02:31:16.240Z,15.37
2022-12-15T02:33:42.506Z,14.86
2022-12-15T02:36:08.762Z,14.80
2022-12-15T02:38:35.019Z,14.14
2022-12-15T02:41:01.273Z,13.98
2022-12-15T02:43:27.695Z,13.84
2022-12-15T02:45:54.221Z,14.01
2022-12-15T02:48:20.532Z,14.64
2022-12-15T02:50:46.790Z,15.22
2022-12-15T02:53:13.072Z,15.04
2022-12-15T02:55:39.325Z,15.03
2022-12-15T02:58:05.562Z,15.15
2022-12-15T03:00:31.827Z,14.89
2022-12-15T03:02:58.164Z,15.30
2022-12-15T03:05:24.507Z,15.11
2022-12-15T03:07:50.788Z,15.68
2022-12-15T03:10:17.031Z,14.98
2022-12-15T03:12:43.289Z,13.97
2022-12-15T03:15:09.533Z,13.97
2022-12-15T03:17:35.785Z,14.25
2022-12-15T03:20:02.086Z,14.57
2022-12-15T03:22:28.334Z,14.10
2022-12-15T03:24:54.565Z,13.68
2022-12-15T03:27:20.826Z,13.75
2022-12-15T03:29:47.095Z,13.82
2022-12-15T03:32:13.428Z,13.68
2022-12-15T03:34:39.729Z,13.35
2022-12-15T03:37:05.970Z,13.14
2022-12-15T03:39:32.230Z,13.89
2022-12-15T03:41:58.484Z,13.40
2022-12-15T03:44:24.741Z,14.16
2022-12-15T03:46:50.979Z,14.29
2022-12-15T03:49:17.217Z,14.75
2022-12-15T03:51:43.457Z,14.45
2022-12-15T03:54:09.709Z,15.73
2022-12-15T03:56:35.991Z,15.58
2022-12-15T03:59:02.241Z,15.80
2022-12-15T04:01:28.580Z,16.39
2022-12-15T04:04:00.246Z,17.27
2022-12-15T04:06:27.279Z,18.25
2022-12-15T04:08:53.551Z,18.11
2022-12-15T04:11:19.843Z,16.52
2022-12-15T04:13:46.119Z,16.90
2022-12-15T04:16:17.820Z,16.48
2022-12-15T04:18:45.939Z,16.75
2022-12-15T04:21:12.192Z,15.73
2022-12-15T04:23:38.437Z,14.53
2022-12-15T04:26:04.700Z,15.45
2022-12-15T04:28:31.078Z,15.92
2022-12-15T04:30:57.408Z,14.58
2022-12-15T04:33:27.708Z,15.42
2022-12-15T04:35:56.931Z,14.59
2022-12-15T04:38:23.180Z,14.26
2022-12-15T04:40:49.435Z,14.01
2022-12-15T04:43:15.729Z,13.93
2022-12-15T04:45:42.053Z,13.95
2022-12-15T04:48:08.330Z,14.19
2022-12-15T04:50:34.596Z,13.79
2022-12-15T04:53:00.836Z,14.20
2022-12-15T04:55:27.100Z,14.22
2022-12-15T04:57:53.394Z,14.56
2022-12-15T05:00:19.665Z,13.43
2022-12-15T05:02:46.006Z,14.53
2022-12-15T05:05:16.068Z,14.02
2022-12-15T05:07:42.326Z,13.93
2022-12-15T05:10:14.641Z,14.02
2022-12-15T05:12:41.480Z,14.48
2022-12-15T05:15:07.733Z,15.46
2022-12-15T05:17:38.319Z,15.17
2022-12-15T05:20:07.555Z,16.12
2022-12-15T05:22:33.798Z,16.12
2022-12-15T05:25:00.072Z,15.99
2022-12-15T05:27:26.332Z,14.54
2022-12-15T05:29:52.586Z,15.10
2022-12-15T05:32:18.826Z,14.58
2022-12-15T05:34:45.073Z,14.23
2022-12-15T05:37:11.337Z,13.35
2022-12-15T05:39:37.584Z,12.93
2022-12-15T05:42:03.939Z,12.03
2022-12-15T05:44:30.169Z,11.32
2022-12-15T05:46:56.397Z,10.46
2022-12-15T05:49:22.651Z,11.05
2022-12-15T05:51:48.890Z,11.17
2022-12-15T05:54:15.138Z,10.93
2022-12-15T05:56:41.370Z,8.10
2022-12-15T05:59:07.612Z,8.76
2022-12-15T06:01:33.895Z,9.64
2022-12-15T06:04:00.152Z,9.97
2022-12-15T06:06:26.411Z,9.44
2022-12-15T06:08:52.650Z,8.66
2022-12-15T06:11:18.906Z,9.73
2022-12-15T06:13:45.138Z,9.89
2022-12-15T06:16:11.442Z,10.30
2022-12-15T06:18:37.713Z,11.39
2022-12-15T06:21:03.973Z,13.68
2022-12-15T06:23:30.785Z,15.17
2022-12-15T06:25:57.313Z,15.82
2022-12-15T06:28:23.554Z,15.49
2022-12-15T06:30:49.922Z,16.92
2022-12-15T06:33:16.166Z,17.24
2022-12-15T06:35:42.419Z,16.67
2022-12-15T06:38:08.662Z,17.05
2022-12-15T06:40:38.281Z,17.99
2022-12-15T06:43:04.683Z,16.25
2022-12-15T06:45:30.933Z,16.05
2022-12-15T06:48:01.305Z,14.20
2022-12-15T06:50:28.050Z,13.11
2022-12-15T06:52:54.294Z,12.88
2022-12-15T06:55:20.548Z,12.39
2022-12-15T06:57:46.936Z,12.53
2022-12-15T07:00:13.243Z,12.08
2022-12-15T07:02:39.639Z,12.29
2022-12-15T07:05:05.980Z,12.70
2022-12-15T07:07:32.226Z,13.43
2022-12-15T07:09:58.501Z,12.23
2022-12-15T07:12:24.776Z,12.14
2022-12-15T07:14:53.555Z,11.86
2022-12-15T07:17:20.087Z,11.27
2022-12-15T07:19:46.414Z,11.87
2022-12-15T07:22:12.658Z,12.66
2022-12-15T07:24:38.893Z,12.99
2022-12-15T07:27:05.139Z,16.68
2022-12-15T07:29:31.396Z,30.63
2022-12-15T07:31:57.686Z,19.52
2022-12-15T07:34:23.982Z,18.28
2022-12-15T07:36:52.604Z,30.33
2022-12-15T07:39:19.063Z,17.15
2022-12-15T07:41:45.325Z,11.94
2022-12-15T07:44:11.727Z,10.85
2022-12-15T07:46:38.047Z,10.36
2022-12-15T07:49:04.358Z,10.31
2022-12-15T07:51:30.598Z,12.01
2022-12-15T07:53:56.853Z,13.04
2022-12-15T07:56:23.100Z,13.97
2022-12-15T07:58:49.330Z,13.16
2022-12-15T08:01:15.768Z,13.47
2022-12-15T08:03:42.357Z,14.76
2022-12-15T08:06:08.669Z,15.54
2022-12-15T08:08:35.846Z,14.24
2022-12-15T08:11:02.525Z,14.78
2022-12-15T08:14:00.884Z,15.72
2022-12-15T08:16:15.148Z,18.70
2022-12-15T08:18:41.457Z,20.81
2022-12-15T08:21:07.703Z,21.27
2022-12-15T08:23:34.409Z,25.46
2022-12-15T08:26:00.880Z,23.67
2022-12-15T08:28:27.129Z,22.80
2022-12-15T08:30:53.397Z,20.10
2022-12-15T08:33:19.655Z,19.34
2022-12-15T08:35:56.872Z,16.06
2022-12-15T08:38:23.506Z,14.83
2022-12-15T08:40:49.746Z,15.47
2022-12-15T08:43:15.990Z,16.45
2022-12-15T08:45:42.461Z,15.52
2022-12-15T08:48:08.804Z,12.96
2022-12-15T08:50:35.042Z,11.64
2022-12-15T08:53:29.682Z,11.71
2022-12-15T08:55:47.611Z,11.45
2022-12-15T08:58:13.908Z,11.92
2022-12-15T09:00:40.149Z,12.81
2022-12-15T09:03:06.383Z,13.41
2022-12-15T09:05:32.644Z,14.49
2022-12-15T09:08:04.662Z,15.00
2022-12-15T09:10:32.743Z,14.54
2022-12-15T09:12:59.016Z,15.16
2022-12-15T09:15:45.404Z,16.62
2022-12-15T09:18:11.500Z,16.05
2022-12-15T09:20:37.754Z,18.31
2022-12-15T09:23:03.991Z,17.10
2022-12-15T09:25:30.234Z,16.00
2022-12-15T09:27:56.510Z,16.40
2022-12-15T09:30:22.790Z,17.95
2022-12-15T09:32:49.034Z,18.91
2022-12-15T09:35:15.274Z,19.21
2022-12-15T09:37:41.514Z,18.92
2022-12-15T09:40:07.765Z,19.93
2022-12-15T09:42:34.028Z,19.20
2022-12-15T09:45:00.358Z,19.52
2022-12-15T09:47:26.624Z,20.41
2022-12-15T09:49:52.901Z,20.37
2022-12-15T09:52:19.203Z,19.15
2022-12-15T09:54:45.523Z,20.15
2022-12-15T09:57:11.817Z,20.69
2022-12-15T09:59:38.088Z,20.80
2022-12-15T10:02:04.424Z,20.26
2022-12-15T10:04:30.900Z,20.47
2022-12-15T10:06:57.267Z,20.65
2022-12-15T10:09:23.519Z,21.12
2022-12-15T10:11:50.538Z,20.46
2022-12-15T10:14:17.211Z,20.40
2022-12-15T10:16:43.454Z,19.86
2022-12-15T10:19:09.698Z,20.38
2022-12-15T10:21:35.988Z,20.62
2022-12-15T10:24:02.290Z,20.73
2022-12-15T10:26:28.534Z,20.34
2022-12-15T10:28:54.783Z,20.90
2022-12-15T10:31:21.675Z,19.54
2022-12-15T10:33:50.193Z,20.90
2022-12-15T10:36:16.738Z,42.10
2022-12-15T10:38:42.980Z,53.56
2022-12-15T10:41:09.241Z,37.76
2022-12-15T10:43:36.193Z,47.96
2022-12-15T10:46:02.794Z,47.69
2022-12-15T10:48:29.095Z,41.53
2022-12-15T10:50:55.367Z,35.14
2022-12-15T10:53:21.637Z,21.68
2022-12-15T10:55:49.904Z,18.49
2022-12-15T10:58:16.491Z,16.59
2022-12-15T11:00:42.765Z,13.54
2022-12-15T11:03:09.210Z,14.35
2022-12-15T11:05:35.622Z,13.36
2022-12-15T11:08:01.855Z,12.97
2022-12-15T11:10:28.109Z,13.29
2022-12-15T11:15:40.610Z,12.48
2022-12-15T11:18:06.907Z,11.20
2022-12-15T11:20:33.166Z,10.54
2022-12-15T11:22:59.425Z,9.92
2022-12-15T11:25:25.678Z,9.41
2022-12-15T11:27:51.910Z,9.46
2022-12-15T11:30:18.137Z,9.52
2022-12-15T11:32:44.390Z,9.79
2022-12-15T11:35:10.622Z,9.65
2022-12-15T11:37:37.187Z,10.08
2022-12-15T11:40:03.503Z,10.95
2022-12-15T11:42:29.857Z,10.62
2022-12-15T11:44:56.117Z,10.96
2022-12-15T11:47:22.384Z,11.95
2022-12-15T11:49:48.812Z,12.76
2022-12-15T11:52:15.090Z,12.58
2022-12-15T11:54:41.349Z,11.87
2022-12-15T11:57:07.589Z,12.18
2022-12-15T11:59:33.847Z,12.29
2022-12-15T12:02:03.308Z,13.05
2022-12-15T12:04:29.980Z,13.11
2022-12-15T12:06:56.259Z,13.31
2022-12-15T12:09:22.506Z,13.16
2022-12-15T12:11:48.854Z,13.39
2022-12-15T12:14:16.867Z,13.43
2022-12-15T12:16:43.106Z,14.22
2022-12-15T12:19:09.451Z,14.17
2022-12-15T12:21:35.739Z,14.45
2022-12-15T12:24:01.983Z,14.53
2022-12-15T12:26:28.215Z,13.72
2022-12-15T12:28:54.470Z,13.39
2022-12-15T12:31:20.880Z,13.43
2022-12-15T12:33:47.128Z,14.92
2022-12-15T12:36:14.944Z,14.24
2022-12-15T12:38:41.219Z,14.21
2022-12-15T12:41:07.468Z,14.48
2022-12-15T12:43:34.656Z,12.72
2022-12-15T12:46:01.342Z,13.31
2022-12-15T12:48:27.602Z,13.13
2022-12-15T12:50:53.860Z,13.85
2022-12-15T12:53:20.110Z,12.94
2022-12-15T12:55:46.422Z,13.26
2022-12-15T12:58:13.270Z,14.06
2022-12-15T13:00:39.663Z,14.28
2022-12-15T13:03:06.043Z,13.63
2022-12-15T13:05:32.291Z,13.32
2022-12-15T13:07:58.608Z,13.64
2022-12-15T13:10:24.871Z,13.52
2022-12-15T13:12:52.324Z,13.25
2022-12-15T13:15:19.334Z,13.43
2022-12-15T13:17:46.653Z,13.32
2022-12-15T13:20:15.096Z,13.71
2022-12-15T13:22:41.352Z,13.41
2022-12-15T13:25:07.594Z,12.69
2022-12-15T13:27:33.838Z,11.65
2022-12-15T13:30:00.075Z,11.94
2022-12-15T13:32:26.394Z,12.06
2022-12-15T13:34:52.812Z,11.84
2022-12-15T13:37:19.173Z,11.99
2022-12-15T13:39:45.438Z,12.26
2022-12-15T13:42:33.510Z,11.75
2022-12-15T13:45:00.698Z,10.85
2022-12-15T13:47:26.942Z,11.58
2022-12-15T13:49:59.313Z,10.83
2022-12-15T13:52:59.468Z,14.21
2022-12-15T13:55:14.121Z,11.89
2022-12-15T13:57:40.364Z,11.82
2022-12-15T14:00:06.614Z,12.07
2022-12-15T14:02:32.913Z,12.37
2022-12-15T14:04:59.186Z,12.33
2022-12-15T14:07:25.420Z,12.07
2022-12-15T14:09:51.655Z,12.36
2022-12-15T14:12:17.908Z,12.71
2022-12-15T14:14:44.150Z,12.36
2022-12-15T14:17:13.470Z,12.19
2022-12-15T14:19:39.732Z,12.06
2022-12-15T14:22:05.980Z,11.20
2022-12-15T14:24:40.420Z,10.61
2022-12-15T14:27:07.017Z,10.50
2022-12-15T14:29:33.273Z,11.84
2022-12-15T14:31:59.572Z,12.08
2022-12-15T14:34:25.853Z,11.18
2022-12-15T14:36:52.133Z,11.21
2022-12-15T14:39:18.390Z,10.66
2022-12-15T14:41:44.657Z,11.22
2022-12-15T14:44:37.203Z,12.20
2022-12-15T14:47:01.546Z,11.91
2022-12-15T14:49:27.884Z,11.57
2022-12-15T14:51:54.848Z,12.01
2022-12-15T14:54:21.145Z,11.24
2022-12-15T14:56:47.380Z,10.59
2022-12-15T14:59:13.720Z,10.65
2022-12-15T15:01:40.413Z,9.86
2022-12-15T15:03:10.726Z,13.28
2022-12-15T15:04:06.775Z,9.66
2022-12-15T15:06:33.015Z,9.89
2022-12-15T15:08:59.263Z,9.49
2022-12-15T15:11:25.560Z,9.79
2022-12-15T15:13:51.798Z,9.55
2022-12-15T15:16:18.126Z,9.54
2022-12-15T15:18:44.409Z,9.37
2022-12-15T15:21:10.650Z,9.65
2022-12-15T15:23:36.881Z,10.15
2022-12-15T15:26:03.173Z,10.45
2022-12-15T15:28:29.833Z,11.97
2022-12-15T15:30:56.867Z,10.73
2022-12-15T15:33:23.330Z,11.49
2022-12-15T15:35:49.573Z,9.89
2022-12-15T15:38:15.822Z,8.42
2022-12-15T15:40:42.077Z,7.71
2022-12-15T15:43:08.333Z,7.77
2022-12-15T15:45:34.580Z,7.72
2022-12-15T15:48:00.834Z,7.31
2022-12-15T15:50:27.205Z,6.94
2022-12-15T15:52:53.552Z,7.10
2022-12-15T15:55:19.808Z,6.88
2022-12-15T15:57:46.052Z,7.79
2022-12-15T16:00:12.290Z,8.11
2022-12-15T16:02:38.713Z,8.63
2022-12-15T16:05:05.063Z,9.52
2022-12-15T16:07:31.309Z,8.52
2022-12-15T16:09:57.572Z,8.12
2022-12-15T16:12:23.858Z,7.84
2022-12-15T16:14:50.114Z,6.95
2022-12-15T16:17:16.355Z,6.78
2022-12-15T16:19:42.719Z,6.26
2022-12-15T16:22:08.955Z,6.13
2022-12-15T16:24:35.212Z,6.36
2022-12-15T16:27:01.474Z,5.45
2022-12-15T16:29:27.710Z,5.67
2022-12-15T16:31:54.028Z,5.32
2022-12-15T16:34:20.334Z,5.26
2022-12-15T16:36:46.593Z,5.69
2022-12-15T16:39:12.849Z,4.99
2022-12-15T16:41:39.099Z,5.14
2022-12-15T16:44:05.353Z,5.38
2022-12-15T16:46:31.691Z,5.28
2022-12-15T16:48:58.016Z,4.84
2022-12-15T16:51:24.317Z,4.56
2022-12-15T16:53:50.584Z,4.90
2022-12-15T16:56:16.845Z,4.46
2022-12-15T16:58:48.504Z,4.76
2022-12-15T17:01:15.107Z,4.94
2022-12-15T17:03:41.424Z,4.88
2022-12-15T17:06:07.714Z,4.40
2022-12-15T17:08:34.497Z,4.63
2022-12-15T17:11:01.018Z,4.40
2022-12-15T17:13:33.645Z,4.18
2022-12-15T17:16:03.101Z,4.56
2022-12-15T17:18:29.746Z,4.46
2022-12-15T17:20:56.189Z,4.10
2022-12-15T17:23:22.445Z,4.07
2022-12-15T17:28:34.940Z,3.80
2022-12-15T17:31:01.251Z,3.84
2022-12-15T17:33:27.553Z,3.80
2022-12-15T17:35:53.782Z,3.53
2022-12-15T17:38:20.030Z,3.18
2022-12-15T17:40:46.274Z,3.49
2022-12-15T17:43:12.520Z,2.81
2022-12-15T17:45:38.773Z,3.19
2022-12-15T17:48:05.009Z,3.80
2022-12-15T17:50:31.241Z,3.23
2022-12-15T17:52:57.494Z,3.19
2022-12-15T17:55:23.741Z,3.24
2022-12-15T17:57:49.971Z,2.87
2022-12-15T18:00:16.229Z,2.87
2022-12-15T18:02:42.759Z,2.88
2022-12-15T18:05:09.139Z,2.93
2022-12-15T18:07:35.379Z,2.69
2022-12-15T18:10:01.633Z,2.73
2022-12-15T18:12:27.853Z,3.03
2022-12-15T18:14:54.089Z,3.34
2022-12-15T18:17:20.347Z,2.98
2022-12-15T18:19:46.638Z,2.99
2022-12-15T18:22:13.022Z,3.29
2022-12-15T18:24:39.266Z,3.88
2022-12-15T18:27:05.521Z,3.75
2022-12-15T18:29:31.778Z,3.81
2022-12-15T18:31:58.161Z,4.04
2022-12-15T18:34:24.458Z,4.12
2022-12-15T18:36:50.704Z,4.20
2022-12-15T18:39:16.958Z,4.01
2022-12-15T18:41:43.197Z,3.87
2022-12-15T18:44:09.434Z,3.82
2022-12-15T18:46:35.709Z,3.73
2022-12-15T18:49:02.026Z,3.74
2022-12-15T18:51:28.263Z,3.79
2022-12-15T18:53:54.495Z,3.45
2022-12-15T18:56:20.743Z,3.41
2022-12-15T18:58:46.995Z,3.34
2022-12-15T19:01:13.303Z,3.53
2022-12-15T19:03:39.589Z,3.13
2022-12-15T19:06:05.827Z,2.76
2022-12-15T19:08:32.087Z,2.74
2022-12-15T19:10:58.445Z,2.52
2022-12-15T19:13:24.682Z,2.69
2022-12-15T19:15:50.925Z,2.43
2022-12-15T19:18:17.187Z,2.39
2022-12-15T19:20:43.423Z,2.38
2022-12-15T19:23:09.649Z,2.39
2022-12-15T19:25:35.879Z,2.34
2022-12-15T19:28:02.126Z,2.40
2022-12-15T19:30:28.357Z,2.24
2022-12-15T19:32:54.609Z,2.37
2022-12-15T19:35:21.015Z,2.67
2022-12-15T19:37:47.255Z,2.81
2022-12-15T19:40:13.497Z,2.66
2022-12-15T19:42:39.737Z,3.00
2022-12-15T19:45:05.963Z,2.99
2022-12-15T19:47:32.212Z,3.07
2022-12-15T19:49:58.456Z,2.97
2022-12-15T19:52:24.681Z,3.17
2022-12-15T19:54:50.912Z,3.28
2022-12-15T19:57:17.175Z,3.30
2022-12-15T19:59:43.437Z,3.77
2022-12-15T20:02:09.804Z,3.78
2022-12-15T20:04:36.181Z,3.37
2022-12-15T20:07:02.419Z,3.23
2022-12-15T20:09:28.650Z,3.00
2022-12-15T20:11:54.874Z,3.40
2022-12-15T20:14:21.217Z,3.29
2022-12-15T20:16:47.521Z,3.33
2022-12-15T20:19:13.808Z,3.40
2022-12-15T20:21:40.053Z,3.43
2022-12-15T20:24:06.317Z,3.58
2022-12-15T20:26:32.552Z,3.45
2022-12-15T20:28:58.793Z,3.57
2022-12-15T20:31:25.226Z,3.53
2022-12-15T20:33:51.527Z,3.81
2022-12-15T20:36:17.775Z,4.31
2022-12-15T20:38:44.076Z,4.47
2022-12-15T20:41:10.310Z,4.71
2022-12-15T20:43:37.012Z,5.14
2022-12-15T20:46:03.475Z,5.20
2022-12-15T20:48:29.749Z,5.25
2022-12-15T20:50:56.004Z,5.18
2022-12-15T20:53:22.249Z,4.87
2022-12-15T20:55:48.504Z,4.79
2022-12-15T20:58:14.739Z,4.69
2022-12-15T21:00:40.982Z,4.52
2022-12-15T21:03:07.361Z,4.11
2022-12-15T21:05:34.401Z,4.17
2022-12-15T21:08:00.640Z,4.30
2022-12-15T21:10:26.875Z,4.00
2022-12-15T21:12:53.132Z,3.76
2022-12-15T21:15:19.368Z,4.07
2022-12-15T21:17:45.724Z,4.30
2022-12-15T21:20:11.985Z,4.50
2022-12-15T21:22:38.265Z,4.50
2022-12-15T21:25:04.506Z,4.27
2022-12-15T21:27:30.757Z,4.27
2022-12-15T21:29:57.017Z,4.18
2022-12-15T21:32:23.250Z,4.21
2022-12-15T21:34:49.477Z,4.97
2022-12-15T21:37:15.725Z,5.21
2022-12-15T21:39:41.955Z,4.93
2022-12-15T21:42:08.214Z,4.72
2022-12-15T21:44:34.493Z,6.18
2022-12-15T21:47:00.773Z,8.33
2022-12-15T21:49:27.010Z,7.55
2022-12-15T21:51:53.242Z,7.15
2022-12-15T21:54:24.732Z,6.69
2022-12-15T21:56:52.353Z,5.99
2022-12-15T21:59:18.578Z,6.83
2022-12-15T22:01:44.935Z,6.04
2022-12-15T22:04:11.266Z,6.92
2022-12-15T22:06:37.518Z,7.18
2022-12-15T22:09:03.765Z,6.57
2022-12-15T22:11:30.036Z,6.19
2022-12-15T22:13:56.281Z,6.17
2022-12-15T22:16:22.543Z,6.33
2022-12-15T22:18:48.830Z,5.77
2022-12-15T22:21:15.075Z,5.41
2022-12-15T22:23:41.314Z,5.65
2022-12-15T22:26:07.558Z,5.72
2022-12-15T22:28:35.155Z,5.87
2022-12-15T22:31:01.663Z,4.59
2022-12-15T22:33:27.947Z,4.63
2022-12-15T22:35:54.813Z,5.08
2022-12-15T22:38:21.214Z,4.95
2022-12-15T22:40:47.459Z,4.57
2022-12-15T22:43:13.709Z,4.68
2022-12-15T22:45:42.747Z,4.67
2022-12-15T22:48:09.205Z,4.30
2022-12-15T22:50:35.454Z,3.87
2022-12-15T22:53:01.714Z,3.37
2022-12-15T22:55:27.955Z,2.62
2022-12-15T22:57:54.194Z,2.71
2022-12-15T23:00:20.432Z,2.38
2022-12-15T23:02:46.694Z,2.17
2022-12-15T23:05:12.954Z,2.55
2022-12-15T23:07:39.196Z,2.95
2022-12-15T23:10:05.470Z,3.36
2022-12-15T23:12:31.702Z,3.21
2022-12-15T23:14:57.931Z,3.05
2022-12-15T23:17:24.169Z,3.22
2022-12-15T23:19:50.421Z,3.33
2022-12-15T23:22:16.689Z,3.96
2022-12-15T23:24:42.944Z,3.45
2022-12-15T23:27:09.184Z,3.34
2022-12-15T23:29:35.448Z,3.42
2022-12-15T23:32:01.705Z,3.50
2022-12-15T23:34:27.971Z,3.45
2022-12-15T23:36:54.321Z,3.64
2022-12-15T23:39:20.550Z,3.89
2022-12-15T23:41:46.793Z,4.98
2022-12-15T23:44:13.041Z,5.07
2022-12-15T23:46:39.336Z,4.82
2022-12-15T23:49:05.683Z,4.56
2022-12-15T23:51:31.941Z,4.19
2022-12-15T23:53:58.173Z,4.21
2022-12-15T23:56:24.415Z,4.42
2022-12-15T23:58:50.678Z,4.13
